Time;durP1;ratioP1;P1;durP2;ratioP2;P2;SDS_P1;SDS_P2;PMS_P1;PMS_P2;Temp;Humidity;BMP_temperature;BMP_pressure;BME280_temperature;BME280_humidity;BME280_pressure;Samples;Min_cycle;Max_cycle;Signal;HPM_P1;HPM_P2
2022/11/11 18:09:59;;;;;;;20.38;5.75;;;;;;;;;;5114324;22;20055;-83
2022/11/11 18:12:27;;;;;;;15.57;5.30;;;;;;;;;;5102474;28;20090;-84
2022/11/11 18:14:54;;;;;;;15.00;5.57;;;;;;;;;;5103417;28;20044;-84
2022/11/11 18:17:23;;;;;;;15.32;5.97;;;;;;;;;;5085858;28;20139;-83
2022/11/11 18:19:50;;;;;;;12.77;6.43;;;;;;;;;;5085452;28;20048;-84
2022/11/11 18:22:17;;;;;;;8.80;5.30;;;;;;;;;;5105641;28;20467;-84
2022/11/11 18:24:44;;;;;;;12.55;5.22;;;;;;;;;;5086980;28;20048;-83
2022/11/11 18:27:12;;;;;;;14.13;5.90;;;;;;;;;;5085906;28;20075;-84
2022/11/11 18:29:39;;;;;;;8.95;4.18;;;;;;;;;;5083488;28;20140;-83
2022/11/11 18:32:07;;;;;;;10.63;4.75;;;;;;;;;;5102135;28;20058;-83
2022/11/11 18:34:34;;;;;;;13.50;6.45;;;;;;;;;;5085405;28;20072;-83
2022/11/11 18:37:03;;;;;;;15.27;5.65;;;;;;;;;;5085906;28;20062;-83
2022/11/11 18:39:30;;;;;;;8.63;5.28;;;;;;;;;;5101462;28;20414;-83
2022/11/11 18:41:57;;;;;;;7.13;4.75;;;;;;;;;;5084964;28;20078;-83
2022/11/11 18:44:25;;;;;;;13.63;5.57;;;;;;;;;;5103243;28;20083;-83
2022/11/11 18:46:54;;;;;;;10.48;5.28;;;;;;;;;;5085644;28;20047;-82
2022/11/11 18:49:21;;;;;;;11.70;5.38;;;;;;;;;;5100928;28;20044;-83
2022/11/11 18:51:49;;;;;;;12.32;7.22;;;;;;;;;;5101280;28;20075;-83
2022/11/11 18:54:16;;;;;;;13.45;6.45;;;;;;;;;;5100036;28;20048;-83
2022/11/11 18:56:44;;;;;;;9.57;5.97;;;;;;;;;;5098648;28;20117;-83
2022/11/11 18:59:13;;;;;;;7.97;5.57;;;;;;;;;;5070278;28;20048;-83
2022/11/11 19:01:41;;;;;;;14.80;5.43;;;;;;;;;;5094831;28;20048;-83
2022/11/11 19:04:09;;;;;;;8.52;4.63;;;;;;;;;;5095206;28;20102;-83
2022/11/11 19:06:38;;;;;;;10.07;5.18;;;;;;;;;;5078154;28;20054;-83
2022/11/11 19:09:07;;;;;;;8.25;4.63;;;;;;;;;;5074504;28;20053;-83
2022/11/11 19:11:37;;;;;;;14.95;7.63;;;;;;;;;;5078748;28;20048;-84
2022/11/11 19:14:05;;;;;;;29.33;12.57;;;;;;;;;;5083156;28;20054;-84
2022/11/11 19:16:33;;;;;;;24.40;14.50;;;;;;;;;;5084193;28;20498;-84
2022/11/11 19:19:00;;;;;;;23.42;17.38;;;;;;;;;;5101954;28;20149;-84
2022/11/11 19:21:30;;;;;;;20.02;14.70;;;;;;;;;;5082921;28;20107;-84
2022/11/11 19:23:57;;;;;;;16.67;11.05;;;;;;;;;;5084488;28;20044;-84
2022/11/11 19:26:26;;;;;;;17.73;10.88;;;;;;;;;;5083122;28;20119;-83
2022/11/11 19:28:53;;;;;;;18.20;7.93;;;;;;;;;;5084127;28;20047;-83
2022/11/11 19:31:22;;;;;;;14.90;7.93;;;;;;;;;;5083374;28;20040;-84
2022/11/11 19:33:50;;;;;;;13.02;7.10;;;;;;;;;;5083593;28;20048;-83
2022/11/11 19:36:23;;;;;;;11.00;6.75;;;;;;;;;;5085051;28;20052;-84
2022/11/11 19:38:51;;;;;;;9.10;6.00;;;;;;;;;;5083458;28;20043;-83
2022/11/11 19:41:19;;;;;;;9.07;6.20;;;;;;;;;;5101887;28;20087;-83
2022/11/11 19:43:48;;;;;;;7.93;5.68;;;;;;;;;;5084135;28;20040;-84
2022/11/11 19:46:17;;;;;;;9.77;6.43;;;;;;;;;;5102306;28;20047;-84
2022/11/11 19:48:45;;;;;;;8.98;6.28;;;;;;;;;;5083728;28;20101;-84
2022/11/11 19:51:15;;;;;;;19.75;6.45;;;;;;;;;;5083278;28;20047;-84
2022/11/11 19:53:42;;;;;;;8.93;5.43;;;;;;;;;;5083782;28;20058;-83
2022/11/11 19:56:11;;;;;;;11.98;4.80;;;;;;;;;;5101932;28;20078;-83
2022/11/11 19:58:39;;;;;;;6.60;4.70;;;;;;;;;;5100978;28;20094;-84
2022/11/11 20:01:07;;;;;;;7.25;4.20;;;;;;;;;;5100571;28;20083;-84
2022/11/11 20:03:35;;;;;;;5.22;4.25;;;;;;;;;;5083201;28;20055;-84
2022/11/11 20:06:03;;;;;;;6.30;4.20;;;;;;;;;;5081162;28;20498;-83
2022/11/11 20:08:31;;;;;;;6.10;4.20;;;;;;;;;;5100874;28;20047;-82
2022/11/11 20:11:05;;;;;;;9.05;3.78;;;;;;;;;;5081180;28;20053;-83
2022/11/11 20:13:33;;;;;;;5.85;4.03;;;;;;;;;;5099411;28;20079;-84
2022/11/11 20:16:08;;;;;;;6.25;3.78;;;;;;;;;;5100139;28;20052;-83
2022/11/11 20:18:35;;;;;;;6.15;3.97;;;;;;;;;;5101143;28;20050;-83
2022/11/11 20:21:04;;;;;;;5.78;4.10;;;;;;;;;;5099588;28;20109;-84
2022/11/11 20:23:42;;;;;;;6.65;4.00;;;;;;;;;;5100736;28;20103;-84
2022/11/11 20:26:10;;;;;;;8.38;4.32;;;;;;;;;;5099427;28;20040;-83
2022/11/11 20:28:38;;;;;;;9.77;4.47;;;;;;;;;;5099079;28;20052;-83
2022/11/11 20:31:10;;;;;;;12.73;5.15;;;;;;;;;;5099222;28;20544;-83
2022/11/11 20:33:38;;;;;;;11.07;4.82;;;;;;;;;;5100376;28;20052;-83
2022/11/11 20:36:06;;;;;;;11.45;4.70;;;;;;;;;;5100174;28;20062;-84
2022/11/11 20:38:34;;;;;;;7.13;4.90;;;;;;;;;;5100040;28;20089;-83
2022/11/11 20:41:03;;;;;;;16.42;9.07;;;;;;;;;;5099788;28;20075;-83
2022/11/11 20:43:32;;;;;;;12.52;6.80;;;;;;;;;;5098149;28;20107;-83
2022/11/11 20:46:03;;;;;;;10.43;6.22;;;;;;;;;;5099078;28;20079;-83
2022/11/11 20:48:30;;;;;;;15.07;8.57;;;;;;;;;;5098678;28;20044;-83
2022/11/11 20:51:02;;;;;;;28.80;12.35;;;;;;;;;;5099454;28;20052;-83
2022/11/11 20:53:29;;;;;;;25.20;10.90;;;;;;;;;;5100396;28;20502;-84
2022/11/11 20:56:08;;;;;;;19.27;10.77;;;;;;;;;;5082541;28;20048;-84
2022/11/11 20:58:36;;;;;;;17.48;9.25;;;;;;;;;;5081627;28;20399;-83
2022/11/11 21:01:04;;;;;;;23.15;10.68;;;;;;;;;;5099280;28;20063;-84
2022/11/11 21:03:33;;;;;;;23.25;11.48;;;;;;;;;;5081397;28;20391;-83
2022/11/11 21:06:05;;;;;;;22.15;10.80;;;;;;;;;;5082069;28;20040;-83
2022/11/11 21:08:32;;;;;;;23.80;10.77;;;;;;;;;;5081562;28;20083;-83
2022/11/11 21:11:01;;;;;;;16.98;9.40;;;;;;;;;;5081804;28;20558;-84
2022/11/11 21:13:29;;;;;;;21.17;10.50;;;;;;;;;;5099483;28;20127;-84
2022/11/11 21:16:10;;;;;;;13.45;8.10;;;;;;;;;;5081168;28;20166;-84
2022/11/11 21:18:43;;;;;;;13.88;7.82;;;;;;;;;;5099831;28;20052;-83
2022/11/11 21:21:22;;;;;;;13.82;7.15;;;;;;;;;;5098117;28;20048;-83
2022/11/11 21:23:53;;;;;;;12.35;6.78;;;;;;;;;;5098680;28;20529;-84
2022/11/11 21:26:21;;;;;;;12.10;7.50;;;;;;;;;;5099406;28;20050;-83
2022/11/11 21:28:48;;;;;;;11.10;6.50;;;;;;;;;;5098729;28;20076;-84
2022/11/11 21:31:21;;;;;;;10.63;6.93;;;;;;;;;;5098969;28;20040;-83
2022/11/11 21:33:52;;;;;;;9.25;6.68;;;;;;;;;;5099395;28;20099;-83
2022/11/11 21:36:20;;;;;;;11.32;7.07;;;;;;;;;;5098482;28;20084;-83
2022/11/11 21:38:47;;;;;;;12.48;6.90;;;;;;;;;;5097925;28;20052;-84
2022/11/11 21:41:19;;;;;;;8.00;6.68;;;;;;;;;;5098276;28;20131;-84
2022/11/11 21:43:47;;;;;;;16.23;6.70;;;;;;;;;;5098348;28;20132;-83
2022/11/11 21:46:18;;;;;;;13.15;7.03;;;;;;;;;;5081385;28;20040;-83
2022/11/11 21:48:46;;;;;;;10.75;7.45;;;;;;;;;;5099739;28;20559;-83
2022/11/11 21:51:17;;;;;;;14.52;6.97;;;;;;;;;;5098623;28;20071;-84
2022/11/11 21:53:44;;;;;;;12.30;7.30;;;;;;;;;;5098541;28;20055;-84
2022/11/11 21:56:13;;;;;;;11.10;6.95;;;;;;;;;;5099936;28;20107;-84
2022/11/11 21:58:41;;;;;;;11.90;7.43;;;;;;;;;;5101276;28;20062;-84
2022/11/11 22:01:09;;;;;;;12.20;7.47;;;;;;;;;;5101766;28;20056;-84
2022/11/11 22:03:37;;;;;;;9.15;6.68;;;;;;;;;;5102699;28;20086;-84
2022/11/11 22:06:06;;;;;;;9.85;6.97;;;;;;;;;;5102124;28;20051;-83
2022/11/11 22:08:33;;;;;;;10.15;6.95;;;;;;;;;;5100910;28;20075;-84
2022/11/11 22:11:05;;;;;;;10.63;7.07;;;;;;;;;;5100972;28;20044;-84
2022/11/11 22:13:33;;;;;;;9.80;6.57;;;;;;;;;;5101267;28;20113;-83
2022/11/11 22:16:01;;;;;;;8.68;6.55;;;;;;;;;;5101228;28;20150;-83
2022/11/11 22:18:28;;;;;;;12.38;6.57;;;;;;;;;;5100526;28;20070;-83
2022/11/11 22:21:01;;;;;;;8.05;6.43;;;;;;;;;;5102203;28;20051;-84
2022/11/11 22:23:29;;;;;;;11.30;7.15;;;;;;;;;;5102242;28;20060;-83
2022/11/11 22:26:03;;;;;;;10.60;6.97;;;;;;;;;;5102107;28;20111;-83
2022/11/11 22:28:31;;;;;;;9.13;6.85;;;;;;;;;;5102138;28;20101;-83
2022/11/11 22:31:08;;;;;;;13.20;7.07;;;;;;;;;;5102445;28;20430;-84
2022/11/11 22:33:36;;;;;;;12.25;6.78;;;;;;;;;;5100476;28;20139;-84
2022/11/11 22:36:04;;;;;;;8.73;6.97;;;;;;;;;;5101362;28;20048;-83
2022/11/11 22:38:32;;;;;;;11.88;6.93;;;;;;;;;;5101307;28;20052;-83
2022/11/11 22:41:09;;;;;;;10.40;6.47;;;;;;;;;;5101339;28;20142;-83
2022/11/11 22:43:37;;;;;;;8.52;6.13;;;;;;;;;;5100978;28;20047;-84
2022/11/11 22:46:25;;;;;;;11.27;7.30;;;;;;;;;;5101412;28;20043;-83
2022/11/11 22:49:13;;;;;;;8.73;6.10;;;;;;;;;;5083671;28;20088;-83
2022/11/11 22:51:45;;;;;;;8.57;6.30;;;;;;;;;;5099287;28;20036;-83
2022/11/11 22:54:18;;;;;;;11.80;7.03;;;;;;;;;;5083578;28;20113;-83
2022/11/11 22:56:45;;;;;;;10.40;6.28;;;;;;;;;;5083393;28;20040;-83
2022/11/11 22:59:12;;;;;;;9.65;6.15;;;;;;;;;;5084613;28;20120;-83
2022/11/11 23:01:40;;;;;;;7.97;5.97;;;;;;;;;;5083520;28;20062;-83
2022/11/11 23:04:10;;;;;;;8.90;6.10;;;;;;;;;;5083641;28;20048;-83
2022/11/11 23:06:39;;;;;;;11.18;6.40;;;;;;;;;;5084121;28;20048;-84
2022/11/11 23:09:08;;;;;;;10.52;5.20;;;;;;;;;;5083378;28;20070;-83
2022/11/11 23:11:36;;;;;;;8.55;5.45;;;;;;;;;;5100989;28;20044;-83
2022/11/11 23:14:06;;;;;;;9.88;6.57;;;;;;;;;;5083096;28;20052;-84
2022/11/11 23:16:33;;;;;;;8.35;5.30;;;;;;;;;;5083351;28;20054;-83
2022/11/11 23:19:02;;;;;;;9.70;5.82;;;;;;;;;;5083093;28;20048;-84
2022/11/11 23:21:31;;;;;;;10.82;5.20;;;;;;;;;;5083030;28;20101;-84
2022/11/11 23:23:58;;;;;;;11.15;6.35;;;;;;;;;;5100751;28;20131;-83
2022/11/11 23:26:27;;;;;;;7.13;5.10;;;;;;;;;;5082423;28;20064;-83
2022/11/11 23:28:56;;;;;;;10.35;5.45;;;;;;;;;;5082036;28;20088;-84
2022/11/11 23:31:25;;;;;;;8.68;4.88;;;;;;;;;;5082172;28;20050;-84
2022/11/11 23:33:53;;;;;;;9.27;5.20;;;;;;;;;;5082143;28;20056;-83
2022/11/11 23:36:21;;;;;;;8.02;4.45;;;;;;;;;;5081923;28;20052;-84
2022/11/11 23:38:49;;;;;;;9.00;4.75;;;;;;;;;;5082364;28;20055;-84
2022/11/11 23:41:17;;;;;;;5.40;4.40;;;;;;;;;;5100119;28;20485;-83
2022/11/11 23:43:44;;;;;;;5.50;4.35;;;;;;;;;;5099818;28;20101;-84
2022/11/11 23:46:12;;;;;;;7.68;4.07;;;;;;;;;;5100393;28;20044;-84
2022/11/11 23:48:39;;;;;;;7.80;4.65;;;;;;;;;;5099939;28;20113;-83
2022/11/11 23:51:06;;;;;;;8.10;4.80;;;;;;;;;;5082328;28;20052;-83
2022/11/11 23:53:34;;;;;;;9.68;4.60;;;;;;;;;;5081432;28;20571;-83
2022/11/11 23:56:02;;;;;;;8.15;5.13;;;;;;;;;;5081623;28;20498;-83
2022/11/11 23:58:29;;;;;;;7.00;4.50;;;;;;;;;;5081934;28;20079;-83
